sensor_id;sensor_type;location;lat;lon;timestamp;temperature;humidity
18091;DHT22;9172;49.948;9.208;2022-08-04T00:02:05;23.30;97.20
18091;DHT22;9172;49.948;9.208;2022-08-04T00:04:37;23.30;96.70
18091;DHT22;9172;49.948;9.208;2022-08-04T00:07:08;23.30;96.80
18091;DHT22;9172;49.948;9.208;2022-08-04T00:09:43;23.30;96.60
18091;DHT22;9172;49.948;9.208;2022-08-04T00:12:11;23.40;96.80
18091;DHT22;9172;49.948;9.208;2022-08-04T00:14:46;23.40;96.80
18091;DHT22;9172;49.948;9.208;2022-08-04T00:17:19;23.40;96.80
18091;DHT22;9172;49.948;9.208;2022-08-04T00:19:48;23.40;96.70
18091;DHT22;9172;49.948;9.208;2022-08-04T00:22:21;23.40;96.70
18091;DHT22;9172;49.948;9.208;2022-08-04T00:24:50;23.40;96.60
18091;DHT22;9172;49.948;9.208;2022-08-04T00:27:20;23.30;96.40
18091;DHT22;9172;49.948;9.208;2022-08-04T00:29:48;23.30;96.50
18091;DHT22;9172;49.948;9.208;2022-08-04T00:32:18;23.30;96.50
18091;DHT22;9172;49.948;9.208;2022-08-04T00:34:48;23.30;96.30
18091;DHT22;9172;49.948;9.208;2022-08-04T00:37:20;23.30;96.40
18091;DHT22;9172;49.948;9.208;2022-08-04T00:39:49;23.30;96.80
18091;DHT22;9172;49.948;9.208;2022-08-04T00:42:33;23.20;96.40
18091;DHT22;9172;49.948;9.208;2022-08-04T00:45:09;23.20;96.30
18091;DHT22;9172;49.948;9.208;2022-08-04T00:47:48;23.20;96.40
18091;DHT22;9172;49.948;9.208;2022-08-04T00:50:17;23.20;96.50
18091;DHT22;9172;49.948;9.208;2022-08-04T00:53:10;23.20;96.60
18091;DHT22;9172;49.948;9.208;2022-08-04T00:58:53;23.10;96.50
18091;DHT22;9172;49.948;9.208;2022-08-04T01:01:37;23.10;96.70
18091;DHT22;9172;49.948;9.208;2022-08-04T01:04:09;23.10;96.50
18091;DHT22;9172;49.948;9.208;2022-08-04T01:06:40;23.10;96.50
18091;DHT22;9172;49.948;9.208;2022-08-04T01:09:23;23.10;96.60
18091;DHT22;9172;49.948;9.208;2022-08-04T01:12:03;23.00;96.70
18091;DHT22;9172;49.948;9.208;2022-08-04T01:14:46;23.00;96.60
18091;DHT22;9172;49.948;9.208;2022-08-04T01:20:03;23.00;97.00
18091;DHT22;9172;49.948;9.208;2022-08-04T01:23:17;22.90;97.10
18091;DHT22;9172;49.948;9.208;2022-08-04T01:26:17;22.90;97.10
18091;DHT22;9172;49.948;9.208;2022-08-04T01:29:03;22.90;97.10
18091;DHT22;9172;49.948;9.208;2022-08-04T01:31:37;22.80;97.20
18091;DHT22;9172;49.948;9.208;2022-08-04T01:34:07;22.80;97.20
18091;DHT22;9172;49.948;9.208;2022-08-04T01:36:38;22.70;97.30
18091;DHT22;9172;49.948;9.208;2022-08-04T01:39:08;22.70;96.90
18091;DHT22;9172;49.948;9.208;2022-08-04T01:41:57;22.60;96.90
18091;DHT22;9172;49.948;9.208;2022-08-04T01:44:28;22.40;97.10
18091;DHT22;9172;49.948;9.208;2022-08-04T01:47:00;22.40;97.20
18091;DHT22;9172;49.948;9.208;2022-08-04T01:49:31;22.40;97.20
18091;DHT22;9172;49.948;9.208;2022-08-04T01:52:00;22.40;97.20
18091;DHT22;9172;49.948;9.208;2022-08-04T01:54:30;22.50;97.20
18091;DHT22;9172;49.948;9.208;2022-08-04T01:57:00;22.50;97.20
18091;DHT22;9172;49.948;9.208;2022-08-04T01:59:31;22.50;97.10
18091;DHT22;9172;49.948;9.208;2022-08-04T02:02:01;22.40;97.10
18091;DHT22;9172;49.948;9.208;2022-08-04T02:04:31;22.40;97.20
18091;DHT22;9172;49.948;9.208;2022-08-04T02:07:10;22.40;97.40
18091;DHT22;9172;49.948;9.208;2022-08-04T02:09:42;22.40;97.60
18091;DHT22;9172;49.948;9.208;2022-08-04T02:12:16;22.30;98.20
18091;DHT22;9172;49.948;9.208;2022-08-04T02:14:49;22.30;98.10
18091;DHT22;9172;49.948;9.208;2022-08-04T02:17:22;22.20;98.30
18091;DHT22;9172;49.948;9.208;2022-08-04T02:20:00;22.10;98.40
18091;DHT22;9172;49.948;9.208;2022-08-04T02:22:28;22.10;98.30
18091;DHT22;9172;49.948;9.208;2022-08-04T02:25:03;22.10;98.50
18091;DHT22;9172;49.948;9.208;2022-08-04T02:27:49;22.10;98.70
18091;DHT22;9172;49.948;9.208;2022-08-04T02:30:11;22.10;99.00
18091;DHT22;9172;49.948;9.208;2022-08-04T02:32:42;22.10;99.00
18091;DHT22;9172;49.948;9.208;2022-08-04T02:35:14;22.10;98.90
18091;DHT22;9172;49.948;9.208;2022-08-04T02:37:46;22.10;98.60
18091;DHT22;9172;49.948;9.208;2022-08-04T02:40:18;22.10;98.70
18091;DHT22;9172;49.948;9.208;2022-08-04T02:42:46;22.10;98.70
18091;DHT22;9172;49.948;9.208;2022-08-04T02:45:19;22.10;98.60
18091;DHT22;9172;49.948;9.208;2022-08-04T02:47:50;22.00;97.80
18091;DHT22;9172;49.948;9.208;2022-08-04T02:50:21;22.00;98.00
18091;DHT22;9172;49.948;9.208;2022-08-04T02:52:51;21.90;97.60
18091;DHT22;9172;49.948;9.208;2022-08-04T02:55:23;22.00;97.20
18091;DHT22;9172;49.948;9.208;2022-08-04T02:57:54;22.00;97.30
18091;DHT22;9172;49.948;9.208;2022-08-04T03:00:25;22.10;97.00
18091;DHT22;9172;49.948;9.208;2022-08-04T03:03:05;22.20;96.90
18091;DHT22;9172;49.948;9.208;2022-08-04T03:05:38;22.20;96.70
18091;DHT22;9172;49.948;9.208;2022-08-04T03:08:22;22.30;96.60
18091;DHT22;9172;49.948;9.208;2022-08-04T03:11:08;22.30;96.80
18091;DHT22;9172;49.948;9.208;2022-08-04T03:17:18;22.30;96.30
18091;DHT22;9172;49.948;9.208;2022-08-04T03:20:12;22.30;96.50
18091;DHT22;9172;49.948;9.208;2022-08-04T03:23:23;22.30;96.40
18091;DHT22;9172;49.948;9.208;2022-08-04T03:26:08;22.30;96.40
18091;DHT22;9172;49.948;9.208;2022-08-04T03:29:07;22.30;96.50
18091;DHT22;9172;49.948;9.208;2022-08-04T03:31:56;22.30;96.90
18091;DHT22;9172;49.948;9.208;2022-08-04T03:34:42;22.30;96.70
18091;DHT22;9172;49.948;9.208;2022-08-04T03:37:31;22.30;97.00
18091;DHT22;9172;49.948;9.208;2022-08-04T03:43:35;22.20;97.70
18091;DHT22;9172;49.948;9.208;2022-08-04T03:46:26;22.00;97.90
18091;DHT22;9172;49.948;9.208;2022-08-04T03:51:55;22.00;98.00
18091;DHT22;9172;49.948;9.208;2022-08-04T03:55:01;22.00;97.90
18091;DHT22;9172;49.948;9.208;2022-08-04T03:57:59;22.00;97.80
18091;DHT22;9172;49.948;9.208;2022-08-04T04:00:30;22.10;97.60
18091;DHT22;9172;49.948;9.208;2022-08-04T04:03:39;22.10;97.50
18091;DHT22;9172;49.948;9.208;2022-08-04T04:06:31;22.10;97.70
18091;DHT22;9172;49.948;9.208;2022-08-04T04:09:14;22.10;97.90
18091;DHT22;9172;49.948;9.208;2022-08-04T04:15:13;22.00;98.10
18091;DHT22;9172;49.948;9.208;2022-08-04T04:17:54;22.00;98.20
18091;DHT22;9172;49.948;9.208;2022-08-04T04:23:56;22.00;98.50
18091;DHT22;9172;49.948;9.208;2022-08-04T04:32:46;22.00;98.70
18091;DHT22;9172;49.948;9.208;2022-08-04T04:35:20;22.00;98.60
18091;DHT22;9172;49.948;9.208;2022-08-04T04:41:16;21.90;98.30
18091;DHT22;9172;49.948;9.208;2022-08-04T04:44:03;21.90;98.40
18091;DHT22;9172;49.948;9.208;2022-08-04T04:46:37;21.90;98.50
18091;DHT22;9172;49.948;9.208;2022-08-04T04:49:13;21.90;98.70
18091;DHT22;9172;49.948;9.208;2022-08-04T04:51:48;21.90;98.90
18091;DHT22;9172;49.948;9.208;2022-08-04T04:57:09;21.80;99.40
18091;DHT22;9172;49.948;9.208;2022-08-04T04:59:40;21.80;99.10
18091;DHT22;9172;49.948;9.208;2022-08-04T05:09:16;21.90;99.10
18091;DHT22;9172;49.948;9.208;2022-08-04T05:12:21;21.90;99.20
18091;DHT22;9172;49.948;9.208;2022-08-04T05:14:52;21.90;99.60
18091;DHT22;9172;49.948;9.208;2022-08-04T05:17:25;21.90;99.50
18091;DHT22;9172;49.948;9.208;2022-08-04T05:19:59;21.90;99.90
18091;DHT22;9172;49.948;9.208;2022-08-04T05:22:35;22.00;99.90
18091;DHT22;9172;49.948;9.208;2022-08-04T05:25:06;22.00;99.90
18091;DHT22;9172;49.948;9.208;2022-08-04T05:27:39;22.00;99.90
18091;DHT22;9172;49.948;9.208;2022-08-04T05:30:10;22.10;99.90
18091;DHT22;9172;49.948;9.208;2022-08-04T05:32:45;22.10;99.90
18091;DHT22;9172;49.948;9.208;2022-08-04T05:35:18;22.20;99.90
18091;DHT22;9172;49.948;9.208;2022-08-04T05:37:46;22.30;99.90
18091;DHT22;9172;49.948;9.208;2022-08-04T05:40:18;22.30;99.90
18091;DHT22;9172;49.948;9.208;2022-08-04T05:42:49;22.40;99.90
18091;DHT22;9172;49.948;9.208;2022-08-04T05:45:19;22.50;99.90
18091;DHT22;9172;49.948;9.208;2022-08-04T05:47:51;22.60;99.90
18091;DHT22;9172;49.948;9.208;2022-08-04T05:50:20;22.60;99.90
18091;DHT22;9172;49.948;9.208;2022-08-04T05:52:52;22.60;99.90
18091;DHT22;9172;49.948;9.208;2022-08-04T05:55:21;22.70;99.90
18091;DHT22;9172;49.948;9.208;2022-08-04T05:57:50;22.70;99.90
18091;DHT22;9172;49.948;9.208;2022-08-04T06:00:20;22.80;99.90
18091;DHT22;9172;49.948;9.208;2022-08-04T06:02:49;22.80;99.90
18091;DHT22;9172;49.948;9.208;2022-08-04T06:05:20;22.90;99.90
18091;DHT22;9172;49.948;9.208;2022-08-04T06:07:50;22.90;99.90
18091;DHT22;9172;49.948;9.208;2022-08-04T06:10:19;23.00;99.90
18091;DHT22;9172;49.948;9.208;2022-08-04T06:12:51;23.10;99.90
18091;DHT22;9172;49.948;9.208;2022-08-04T06:15:21;23.20;99.90
18091;DHT22;9172;49.948;9.208;2022-08-04T06:20:32;23.40;99.90
18091;DHT22;9172;49.948;9.208;2022-08-04T06:23:05;23.50;99.80
18091;DHT22;9172;49.948;9.208;2022-08-04T06:25:38;23.70;99.90
18091;DHT22;9172;49.948;9.208;2022-08-04T06:28:09;23.80;99.90
18091;DHT22;9172;49.948;9.208;2022-08-04T06:30:40;23.90;99.90
18091;DHT22;9172;49.948;9.208;2022-08-04T06:33:10;24.00;99.90
18091;DHT22;9172;49.948;9.208;2022-08-04T06:35:46;24.10;99.90
18091;DHT22;9172;49.948;9.208;2022-08-04T06:38:15;24.30;99.90
18091;DHT22;9172;49.948;9.208;2022-08-04T06:40:45;24.50;99.90
18091;DHT22;9172;49.948;9.208;2022-08-04T06:43:14;24.60;99.90
18091;DHT22;9172;49.948;9.208;2022-08-04T06:45:44;24.70;99.90
18091;DHT22;9172;49.948;9.208;2022-08-04T06:48:16;24.90;99.80
18091;DHT22;9172;49.948;9.208;2022-08-04T06:50:47;25.00;99.90
18091;DHT22;9172;49.948;9.208;2022-08-04T06:53:17;25.20;99.60
18091;DHT22;9172;49.948;9.208;2022-08-04T06:55:46;25.40;99.30
18091;DHT22;9172;49.948;9.208;2022-08-04T06:58:16;25.70;98.60
18091;DHT22;9172;49.948;9.208;2022-08-04T07:00:47;25.90;98.60
18091;DHT22;9172;49.948;9.208;2022-08-04T07:03:17;26.10;98.00
18091;DHT22;9172;49.948;9.208;2022-08-04T07:05:48;26.30;97.60
18091;DHT22;9172;49.948;9.208;2022-08-04T07:08:19;26.40;97.10
18091;DHT22;9172;49.948;9.208;2022-08-04T07:10:48;26.50;96.90
18091;DHT22;9172;49.948;9.208;2022-08-04T07:13:20;26.60;96.20
18091;DHT22;9172;49.948;9.208;2022-08-04T07:15:50;26.60;95.10
18091;DHT22;9172;49.948;9.208;2022-08-04T07:18:20;26.70;95.20
18091;DHT22;9172;49.948;9.208;2022-08-04T07:20:49;26.80;95.30
18091;DHT22;9172;49.948;9.208;2022-08-04T07:23:22;27.00;95.70
18091;DHT22;9172;49.948;9.208;2022-08-04T07:25:52;27.20;94.90
18091;DHT22;9172;49.948;9.208;2022-08-04T07:28:22;27.30;94.50
18091;DHT22;9172;49.948;9.208;2022-08-04T07:30:53;27.40;94.40
18091;DHT22;9172;49.948;9.208;2022-08-04T07:33:22;27.50;93.70
18091;DHT22;9172;49.948;9.208;2022-08-04T07:35:53;27.60;93.40
18091;DHT22;9172;49.948;9.208;2022-08-04T07:38:23;27.90;93.50
18091;DHT22;9172;49.948;9.208;2022-08-04T07:40:52;28.00;93.00
18091;DHT22;9172;49.948;9.208;2022-08-04T07:43:21;28.20;92.60
18091;DHT22;9172;49.948;9.208;2022-08-04T07:45:50;28.30;90.90
18091;DHT22;9172;49.948;9.208;2022-08-04T07:48:20;28.40;90.10
18091;DHT22;9172;49.948;9.208;2022-08-04T07:50:51;28.40;89.20
18091;DHT22;9172;49.948;9.208;2022-08-04T07:53:21;28.50;87.60
18091;DHT22;9172;49.948;9.208;2022-08-04T07:55:50;28.60;87.60
18091;DHT22;9172;49.948;9.208;2022-08-04T07:58:19;28.60;87.80
18091;DHT22;9172;49.948;9.208;2022-08-04T08:00:49;28.70;87.10
18091;DHT22;9172;49.948;9.208;2022-08-04T08:03:19;28.80;86.50
18091;DHT22;9172;49.948;9.208;2022-08-04T08:05:49;29.00;86.40
18091;DHT22;9172;49.948;9.208;2022-08-04T08:08:19;29.10;85.60
18091;DHT22;9172;49.948;9.208;2022-08-04T08:10:48;29.20;86.30
18091;DHT22;9172;49.948;9.208;2022-08-04T08:13:18;29.30;85.80
18091;DHT22;9172;49.948;9.208;2022-08-04T08:15:47;29.40;85.30
18091;DHT22;9172;49.948;9.208;2022-08-04T08:18:16;29.60;84.90
18091;DHT22;9172;49.948;9.208;2022-08-04T08:20:45;29.60;84.60
18091;DHT22;9172;49.948;9.208;2022-08-04T08:23:14;29.70;84.90
18091;DHT22;9172;49.948;9.208;2022-08-04T08:25:43;29.80;84.40
18091;DHT22;9172;49.948;9.208;2022-08-04T08:28:12;29.90;85.20
18091;DHT22;9172;49.948;9.208;2022-08-04T08:30:42;30.00;84.30
18091;DHT22;9172;49.948;9.208;2022-08-04T08:33:12;30.10;83.90
18091;DHT22;9172;49.948;9.208;2022-08-04T08:35:47;30.20;83.00
18091;DHT22;9172;49.948;9.208;2022-08-04T08:38:21;30.30;82.10
18091;DHT22;9172;49.948;9.208;2022-08-04T08:40:52;30.30;83.10
18091;DHT22;9172;49.948;9.208;2022-08-04T08:43:35;30.40;82.50
18091;DHT22;9172;49.948;9.208;2022-08-04T08:49:22;30.60;82.40
18091;DHT22;9172;49.948;9.208;2022-08-04T08:52:19;30.70;81.80
18091;DHT22;9172;49.948;9.208;2022-08-04T08:54:59;30.80;81.30
18091;DHT22;9172;49.948;9.208;2022-08-04T08:57:39;30.90;81.20
18091;DHT22;9172;49.948;9.208;2022-08-04T09:00:13;31.10;80.40
18091;DHT22;9172;49.948;9.208;2022-08-04T09:03:31;31.10;80.60
18091;DHT22;9172;49.948;9.208;2022-08-04T09:06:14;31.20;79.50
18091;DHT22;9172;49.948;9.208;2022-08-04T09:09:05;31.30;78.10
18091;DHT22;9172;49.948;9.208;2022-08-04T09:11:38;31.30;78.60
18091;DHT22;9172;49.948;9.208;2022-08-04T09:14:14;31.50;79.50
18091;DHT22;9172;49.948;9.208;2022-08-04T09:16:46;31.60;78.90
18091;DHT22;9172;49.948;9.208;2022-08-04T09:19:18;31.60;79.30
18091;DHT22;9172;49.948;9.208;2022-08-04T09:21:51;31.70;78.90
18091;DHT22;9172;49.948;9.208;2022-08-04T09:24:24;31.80;79.10
18091;DHT22;9172;49.948;9.208;2022-08-04T09:26:55;32.00;77.90
18091;DHT22;9172;49.948;9.208;2022-08-04T09:29:32;32.10;78.40
18091;DHT22;9172;49.948;9.208;2022-08-04T09:32:03;32.20;78.50
18091;DHT22;9172;49.948;9.208;2022-08-04T09:34:38;32.30;76.20
18091;DHT22;9172;49.948;9.208;2022-08-04T09:37:08;32.30;76.00
18091;DHT22;9172;49.948;9.208;2022-08-04T09:39:45;32.30;76.30
18091;DHT22;9172;49.948;9.208;2022-08-04T09:42:17;32.40;76.50
18091;DHT22;9172;49.948;9.208;2022-08-04T09:44:50;32.50;76.10
18091;DHT22;9172;49.948;9.208;2022-08-04T09:47:24;32.50;76.20
18091;DHT22;9172;49.948;9.208;2022-08-04T09:49:58;32.70;76.50
18091;DHT22;9172;49.948;9.208;2022-08-04T09:52:31;32.80;75.20
18091;DHT22;9172;49.948;9.208;2022-08-04T09:55:08;32.90;76.20
18091;DHT22;9172;49.948;9.208;2022-08-04T09:57:44;32.90;76.20
18091;DHT22;9172;49.948;9.208;2022-08-04T10:00:13;33.00;75.20
18091;DHT22;9172;49.948;9.208;2022-08-04T10:02:47;33.00;75.50
18091;DHT22;9172;49.948;9.208;2022-08-04T10:05:19;33.00;74.80
18091;DHT22;9172;49.948;9.208;2022-08-04T10:07:56;33.10;75.50
18091;DHT22;9172;49.948;9.208;2022-08-04T10:10:32;33.20;75.70
18091;DHT22;9172;49.948;9.208;2022-08-04T10:16:10;33.30;75.80
18091;DHT22;9172;49.948;9.208;2022-08-04T10:18:44;33.30;75.40
18091;DHT22;9172;49.948;9.208;2022-08-04T10:21:18;33.40;75.90
18091;DHT22;9172;49.948;9.208;2022-08-04T10:26:44;33.50;75.50
18091;DHT22;9172;49.948;9.208;2022-08-04T10:29:17;33.50;74.10
18091;DHT22;9172;49.948;9.208;2022-08-04T10:31:53;33.50;76.30
18091;DHT22;9172;49.948;9.208;2022-08-04T10:34:20;33.60;75.30
18091;DHT22;9172;49.948;9.208;2022-08-04T10:36:55;33.70;75.60
18091;DHT22;9172;49.948;9.208;2022-08-04T10:39:26;33.80;75.40
18091;DHT22;9172;49.948;9.208;2022-08-04T10:41:59;34.00;76.20
18091;DHT22;9172;49.948;9.208;2022-08-04T10:44:32;34.10;76.40
18091;DHT22;9172;49.948;9.208;2022-08-04T10:47:07;34.00;74.40
18091;DHT22;9172;49.948;9.208;2022-08-04T10:49:37;33.70;75.30
18091;DHT22;9172;49.948;9.208;2022-08-04T10:52:10;33.70;77.10
18091;DHT22;9172;49.948;9.208;2022-08-04T10:54:44;33.80;75.30
18091;DHT22;9172;49.948;9.208;2022-08-04T10:57:18;34.00;75.80
18091;DHT22;9172;49.948;9.208;2022-08-04T10:59:52;34.00;73.60
18091;DHT22;9172;49.948;9.208;2022-08-04T11:02:40;33.60;74.10
18091;DHT22;9172;49.948;9.208;2022-08-04T11:05:17;33.50;76.00
18091;DHT22;9172;49.948;9.208;2022-08-04T11:07:49;33.60;75.80
18091;DHT22;9172;49.948;9.208;2022-08-04T11:10:21;33.80;75.70
18091;DHT22;9172;49.948;9.208;2022-08-04T11:12:54;34.00;75.90
18091;DHT22;9172;49.948;9.208;2022-08-04T11:15:27;34.20;73.10
18091;DHT22;9172;49.948;9.208;2022-08-04T11:17:59;34.20;75.30
18091;DHT22;9172;49.948;9.208;2022-08-04T11:20:34;34.20;72.30
18091;DHT22;9172;49.948;9.208;2022-08-04T11:23:04;34.30;72.80
18091;DHT22;9172;49.948;9.208;2022-08-04T11:25:38;34.30;73.40
18091;DHT22;9172;49.948;9.208;2022-08-04T11:28:10;34.40;74.50
18091;DHT22;9172;49.948;9.208;2022-08-04T11:30:41;34.40;74.10
18091;DHT22;9172;49.948;9.208;2022-08-04T11:33:15;34.40;74.20
18091;DHT22;9172;49.948;9.208;2022-08-04T11:35:49;34.50;73.10
18091;DHT22;9172;49.948;9.208;2022-08-04T11:38:21;34.30;73.10
18091;DHT22;9172;49.948;9.208;2022-08-04T11:40:53;34.30;72.30
18091;DHT22;9172;49.948;9.208;2022-08-04T11:43:25;34.30;72.50
18091;DHT22;9172;49.948;9.208;2022-08-04T11:48:36;34.20;71.70
18091;DHT22;9172;49.948;9.208;2022-08-04T11:51:05;34.30;72.70
18091;DHT22;9172;49.948;9.208;2022-08-04T11:53:37;34.40;74.10
18091;DHT22;9172;49.948;9.208;2022-08-04T11:56:09;34.50;71.50
18091;DHT22;9172;49.948;9.208;2022-08-04T11:58:38;34.50;72.70
18091;DHT22;9172;49.948;9.208;2022-08-04T12:01:10;34.30;72.80
18091;DHT22;9172;49.948;9.208;2022-08-04T12:03:45;34.30;72.80
18091;DHT22;9172;49.948;9.208;2022-08-04T12:06:19;34.30;72.20
18091;DHT22;9172;49.948;9.208;2022-08-04T12:08:59;34.30;71.20
18091;DHT22;9172;49.948;9.208;2022-08-04T12:11:45;34.20;73.60
18091;DHT22;9172;49.948;9.208;2022-08-04T12:14:39;34.30;74.80
18091;DHT22;9172;49.948;9.208;2022-08-04T12:17:09;34.40;74.10
18091;DHT22;9172;49.948;9.208;2022-08-04T12:19:43;34.70;73.90
18091;DHT22;9172;49.948;9.208;2022-08-04T12:22:14;34.70;72.80
18091;DHT22;9172;49.948;9.208;2022-08-04T12:24:46;34.60;71.20
18091;DHT22;9172;49.948;9.208;2022-08-04T12:27:19;34.50;71.90
18091;DHT22;9172;49.948;9.208;2022-08-04T12:29:48;34.40;72.70
18091;DHT22;9172;49.948;9.208;2022-08-04T12:32:22;34.40;73.80
18091;DHT22;9172;49.948;9.208;2022-08-04T12:35:02;34.50;71.60
18091;DHT22;9172;49.948;9.208;2022-08-04T12:37:40;34.50;70.90
18091;DHT22;9172;49.948;9.208;2022-08-04T12:40:13;34.50;72.60
18091;DHT22;9172;49.948;9.208;2022-08-04T12:42:44;34.50;71.80
18091;DHT22;9172;49.948;9.208;2022-08-04T12:45:16;34.60;70.50
18091;DHT22;9172;49.948;9.208;2022-08-04T12:47:45;34.50;68.20
18091;DHT22;9172;49.948;9.208;2022-08-04T12:50:15;34.50;69.20
18091;DHT22;9172;49.948;9.208;2022-08-04T12:52:47;34.50;69.60
18091;DHT22;9172;49.948;9.208;2022-08-04T12:55:18;34.50;68.60
18091;DHT22;9172;49.948;9.208;2022-08-04T12:57:49;34.40;67.60
18091;DHT22;9172;49.948;9.208;2022-08-04T13:00:26;34.50;67.80
18091;DHT22;9172;49.948;9.208;2022-08-04T13:05:36;34.40;65.40
18091;DHT22;9172;49.948;9.208;2022-08-04T13:08:08;34.50;67.40
18091;DHT22;9172;49.948;9.208;2022-08-04T13:10:39;34.50;66.80
18091;DHT22;9172;49.948;9.208;2022-08-04T13:15:58;34.40;65.40
18091;DHT22;9172;49.948;9.208;2022-08-04T13:18:29;34.40;66.30
18091;DHT22;9172;49.948;9.208;2022-08-04T13:23:45;34.50;63.30
18091;DHT22;9172;49.948;9.208;2022-08-04T13:28:52;34.50;63.90
18091;DHT22;9172;49.948;9.208;2022-08-04T13:34:05;34.50;63.70
18091;DHT22;9172;49.948;9.208;2022-08-04T13:36:35;34.30;63.80
18091;DHT22;9172;49.948;9.208;2022-08-04T13:39:07;34.10;64.00
18091;DHT22;9172;49.948;9.208;2022-08-04T13:41:38;34.20;65.10
18091;DHT22;9172;49.948;9.208;2022-08-04T13:44:08;34.30;65.00
18091;DHT22;9172;49.948;9.208;2022-08-04T13:46:54;34.30;66.70
18091;DHT22;9172;49.948;9.208;2022-08-04T13:49:14;34.40;67.30
18091;DHT22;9172;49.948;9.208;2022-08-04T13:51:49;34.40;64.40
18091;DHT22;9172;49.948;9.208;2022-08-04T13:54:19;34.50;65.30
18091;DHT22;9172;49.948;9.208;2022-08-04T13:56:52;34.50;65.20
18091;DHT22;9172;49.948;9.208;2022-08-04T13:59:24;34.50;63.00
18091;DHT22;9172;49.948;9.208;2022-08-04T14:01:58;34.50;62.00
18091;DHT22;9172;49.948;9.208;2022-08-04T14:04:29;34.40;63.60
18091;DHT22;9172;49.948;9.208;2022-08-04T14:07:05;34.50;63.60
18091;DHT22;9172;49.948;9.208;2022-08-04T14:09:37;34.50;62.90
18091;DHT22;9172;49.948;9.208;2022-08-04T14:12:08;34.60;63.60
18091;DHT22;9172;49.948;9.208;2022-08-04T14:14:43;34.60;63.60
18091;DHT22;9172;49.948;9.208;2022-08-04T14:17:14;34.50;59.80
18091;DHT22;9172;49.948;9.208;2022-08-04T14:19:51;34.50;59.40
18091;DHT22;9172;49.948;9.208;2022-08-04T14:22:31;34.50;60.80
18091;DHT22;9172;49.948;9.208;2022-08-04T14:25:04;34.50;60.50
18091;DHT22;9172;49.948;9.208;2022-08-04T14:27:42;34.50;60.70
18091;DHT22;9172;49.948;9.208;2022-08-04T14:30:23;34.50;60.50
18091;DHT22;9172;49.948;9.208;2022-08-04T14:32:57;34.50;60.10
18091;DHT22;9172;49.948;9.208;2022-08-04T14:35:28;34.50;60.40
18091;DHT22;9172;49.948;9.208;2022-08-04T14:37:59;34.50;59.80
18091;DHT22;9172;49.948;9.208;2022-08-04T14:40:32;34.60;61.00
18091;DHT22;9172;49.948;9.208;2022-08-04T14:43:03;34.60;58.90
18091;DHT22;9172;49.948;9.208;2022-08-04T14:45:33;34.60;57.70
18091;DHT22;9172;49.948;9.208;2022-08-04T14:48:05;34.60;57.90
18091;DHT22;9172;49.948;9.208;2022-08-04T14:50:39;34.50;58.30
18091;DHT22;9172;49.948;9.208;2022-08-04T14:53:09;34.50;60.80
18091;DHT22;9172;49.948;9.208;2022-08-04T14:55:41;34.50;60.70
18091;DHT22;9172;49.948;9.208;2022-08-04T14:58:18;34.60;60.70
18091;DHT22;9172;49.948;9.208;2022-08-04T15:00:48;34.60;61.60
18091;DHT22;9172;49.948;9.208;2022-08-04T15:03:19;34.60;61.20
18091;DHT22;9172;49.948;9.208;2022-08-04T15:05:49;34.50;60.40
18091;DHT22;9172;49.948;9.208;2022-08-04T15:08:18;34.50;61.10
18091;DHT22;9172;49.948;9.208;2022-08-04T15:10:46;34.50;60.30
18091;DHT22;9172;49.948;9.208;2022-08-04T15:13:15;34.40;60.30
18091;DHT22;9172;49.948;9.208;2022-08-04T15:15:45;34.30;59.40
18091;DHT22;9172;49.948;9.208;2022-08-04T15:18:14;34.30;57.50
18091;DHT22;9172;49.948;9.208;2022-08-04T15:20:43;34.30;57.90
18091;DHT22;9172;49.948;9.208;2022-08-04T15:23:13;34.40;58.30
18091;DHT22;9172;49.948;9.208;2022-08-04T15:25:45;34.40;57.80
18091;DHT22;9172;49.948;9.208;2022-08-04T15:28:17;34.50;57.40
18091;DHT22;9172;49.948;9.208;2022-08-04T15:30:48;34.50;55.60
18091;DHT22;9172;49.948;9.208;2022-08-04T15:33:18;34.50;56.70
18091;DHT22;9172;49.948;9.208;2022-08-04T15:35:53;34.40;58.20
18091;DHT22;9172;49.948;9.208;2022-08-04T15:38:28;34.40;58.50
18091;DHT22;9172;49.948;9.208;2022-08-04T15:41:01;34.30;57.90
18091;DHT22;9172;49.948;9.208;2022-08-04T15:43:39;34.50;57.10
18091;DHT22;9172;49.948;9.208;2022-08-04T15:46:09;34.40;58.40
18091;DHT22;9172;49.948;9.208;2022-08-04T15:48:40;34.40;58.50
18091;DHT22;9172;49.948;9.208;2022-08-04T15:51:11;34.40;57.50
18091;DHT22;9172;49.948;9.208;2022-08-04T15:56:49;34.40;57.20
18091;DHT22;9172;49.948;9.208;2022-08-04T15:59:56;34.40;58.20
18091;DHT22;9172;49.948;9.208;2022-08-04T16:02:35;34.40;58.90
18091;DHT22;9172;49.948;9.208;2022-08-04T16:05:32;34.40;60.40
18091;DHT22;9172;49.948;9.208;2022-08-04T16:08:14;34.30;64.30
18091;DHT22;9172;49.948;9.208;2022-08-04T16:10:47;34.20;61.10
18091;DHT22;9172;49.948;9.208;2022-08-04T16:13:18;34.10;61.20
18091;DHT22;9172;49.948;9.208;2022-08-04T16:15:50;34.00;62.30
18091;DHT22;9172;49.948;9.208;2022-08-04T16:18:37;34.10;60.00
18091;DHT22;9172;49.948;9.208;2022-08-04T16:21:19;34.10;63.80
18091;DHT22;9172;49.948;9.208;2022-08-04T16:24:08;34.00;63.00
18091;DHT22;9172;49.948;9.208;2022-08-04T16:26:50;33.90;62.40
18091;DHT22;9172;49.948;9.208;2022-08-04T16:32:22;33.80;65.10
18091;DHT22;9172;49.948;9.208;2022-08-04T16:34:55;33.70;63.00
18091;DHT22;9172;49.948;9.208;2022-08-04T16:37:32;33.70;61.90
18091;DHT22;9172;49.948;9.208;2022-08-04T16:40:23;33.70;62.90
18091;DHT22;9172;49.948;9.208;2022-08-04T16:42:57;33.70;62.60
18091;DHT22;9172;49.948;9.208;2022-08-04T16:45:43;33.70;64.50
18091;DHT22;9172;49.948;9.208;2022-08-04T16:48:15;33.60;62.20
18091;DHT22;9172;49.948;9.208;2022-08-04T16:50:53;33.60;63.80
18091;DHT22;9172;49.948;9.208;2022-08-04T16:53:23;33.60;64.70
18091;DHT22;9172;49.948;9.208;2022-08-04T16:55:54;33.50;64.30
18091;DHT22;9172;49.948;9.208;2022-08-04T16:58:27;33.40;62.50
18091;DHT22;9172;49.948;9.208;2022-08-04T17:00:58;33.50;63.10
18091;DHT22;9172;49.948;9.208;2022-08-04T17:03:27;33.50;64.20
18091;DHT22;9172;49.948;9.208;2022-08-04T17:06:08;33.40;66.20
18091;DHT22;9172;49.948;9.208;2022-08-04T17:08:37;33.40;66.40
18091;DHT22;9172;49.948;9.208;2022-08-04T17:11:07;33.30;64.70
18091;DHT22;9172;49.948;9.208;2022-08-04T17:13:38;33.30;64.60
18091;DHT22;9172;49.948;9.208;2022-08-04T17:16:10;33.20;64.90
18091;DHT22;9172;49.948;9.208;2022-08-04T17:18:42;33.10;65.00
18091;DHT22;9172;49.948;9.208;2022-08-04T17:21:15;33.10;66.60
18091;DHT22;9172;49.948;9.208;2022-08-04T17:23:47;33.00;67.50
18091;DHT22;9172;49.948;9.208;2022-08-04T17:26:19;32.90;72.00
18091;DHT22;9172;49.948;9.208;2022-08-04T17:28:50;32.80;72.70
18091;DHT22;9172;49.948;9.208;2022-08-04T17:31:19;32.70;72.80
18091;DHT22;9172;49.948;9.208;2022-08-04T17:33:53;32.50;72.60
18091;DHT22;9172;49.948;9.208;2022-08-04T17:36:25;32.50;71.80
18091;DHT22;9172;49.948;9.208;2022-08-04T17:38:56;32.40;73.90
18091;DHT22;9172;49.948;9.208;2022-08-04T17:41:27;32.30;75.90
18091;DHT22;9172;49.948;9.208;2022-08-04T17:43:58;32.20;76.80
18091;DHT22;9172;49.948;9.208;2022-08-04T17:46:35;32.10;78.30